createdAt,value
2023-02-03T00:01:58.024Z,4.10
2023-02-03T00:04:24.836Z,4.10
2023-02-03T00:06:51.738Z,4.10
2023-02-03T00:09:19.803Z,4.20
2023-02-03T00:11:46.794Z,4.20
2023-02-03T00:14:13.604Z,4.20
2023-02-03T00:16:40.439Z,4.20
2023-02-03T00:19:07.284Z,4.20
2023-02-03T00:21:34.035Z,4.20
2023-02-03T00:24:00.794Z,4.20
2023-02-03T00:26:28.734Z,4.10
2023-02-03T00:28:55.679Z,4.10
2023-02-03T00:31:25.025Z,4.10
2023-02-03T00:33:56.770Z,4.10
2023-02-03T00:36:25.343Z,4.10
2023-02-03T00:38:52.640Z,4.10
2023-02-03T00:41:20.656Z,4.20
2023-02-03T00:43:48.337Z,4.20
2023-02-03T00:46:15.369Z,4.20
2023-02-03T00:48:42.160Z,4.20
2023-02-03T00:51:08.919Z,4.20
2023-02-03T00:53:35.801Z,4.20
2023-02-03T00:56:02.668Z,4.20
2023-02-03T00:58:29.497Z,4.20
2023-02-03T01:00:57.335Z,4.30
2023-02-03T01:03:24.226Z,4.30
2023-02-03T01:05:51.447Z,4.30
2023-02-03T01:08:18.519Z,4.30
2023-02-03T01:10:45.260Z,4.30
2023-02-03T01:13:12.034Z,4.30
2023-02-03T01:15:38.802Z,4.30
2023-02-03T01:18:05.658Z,4.30
2023-02-03T01:20:32.445Z,4.30
2023-02-03T01:22:59.269Z,4.30
2023-02-03T01:25:26.019Z,4.30
2023-02-03T01:27:52.808Z,4.30
2023-02-03T01:30:19.727Z,4.40
2023-02-03T01:32:46.542Z,4.30
2023-02-03T01:35:13.397Z,4.40
2023-02-03T01:37:40.192Z,4.40
2023-02-03T01:40:07.871Z,4.40
2023-02-03T01:42:34.660Z,4.40
2023-02-03T01:45:01.470Z,4.30
2023-02-03T01:47:34.445Z,4.40
2023-02-03T01:50:04.185Z,4.40
2023-02-03T01:52:32.444Z,4.40
2023-02-03T01:55:02.067Z,4.30
2023-02-03T01:57:34.800Z,4.40
2023-02-03T02:00:05.609Z,4.40
2023-02-03T02:02:33.046Z,4.30
2023-02-03T02:05:18.635Z,4.30
2023-02-03T02:07:47.522Z,4.30
2023-02-03T02:10:14.430Z,4.30
2023-02-03T02:12:41.219Z,4.30
2023-02-03T02:15:08.553Z,4.40
2023-02-03T02:17:47.453Z,4.30
2023-02-03T02:20:23.241Z,4.30
2023-02-03T02:22:53.242Z,4.30
2023-02-03T02:25:40.782Z,4.30
2023-02-03T02:28:22.422Z,4.40
2023-02-03T02:30:52.025Z,4.40
2023-02-03T02:33:36.993Z,4.40
2023-02-03T02:36:31.508Z,4.40
2023-02-03T02:39:36.581Z,4.40
2023-02-03T02:42:36.049Z,4.40
2023-02-03T02:45:12.490Z,4.40
2023-02-03T02:47:39.469Z,4.40
2023-02-03T02:50:18.600Z,4.40
2023-02-03T02:52:48.364Z,4.40
2023-02-03T02:55:24.575Z,4.40
2023-02-03T02:57:55.728Z,4.40
2023-02-03T03:00:23.863Z,4.40
2023-02-03T03:02:50.721Z,4.40
2023-02-03T03:05:18.575Z,4.40
2023-02-03T03:08:02.875Z,4.40
2023-02-03T03:10:31.697Z,4.40
2023-02-03T03:13:04.927Z,4.40
2023-02-03T03:15:33.917Z,4.40
2023-02-03T03:18:08.934Z,4.40
2023-02-03T03:20:40.441Z,4.30
2023-02-03T03:23:11.697Z,4.30
2023-02-03T03:25:49.883Z,4.30
2023-02-03T03:28:26.560Z,4.30
2023-02-03T03:30:53.995Z,4.40
2023-02-03T03:33:24.222Z,4.30
2023-02-03T03:36:03.286Z,4.40
2023-02-03T03:38:41.549Z,4.30
2023-02-03T03:41:23.263Z,4.30
2023-02-03T03:43:52.827Z,4.30
2023-02-03T03:46:30.231Z,4.30
2023-02-03T03:49:00.769Z,4.30
2023-02-03T03:51:35.585Z,4.40
2023-02-03T03:54:07.517Z,4.40
2023-02-03T03:56:53.484Z,4.30
2023-02-03T03:59:24.714Z,4.40
2023-02-03T04:01:52.644Z,4.30
2023-02-03T04:04:21.004Z,4.30
2023-02-03T04:06:47.801Z,4.40
2023-02-03T04:09:14.703Z,4.40
2023-02-03T04:12:00.134Z,4.40
2023-02-03T04:14:27.060Z,4.40
2023-02-03T04:16:53.882Z,4.40
2023-02-03T04:19:20.605Z,4.30
2023-02-03T04:21:47.388Z,4.30
2023-02-03T04:24:14.485Z,4.30
2023-02-03T04:26:41.346Z,4.30
2023-02-03T04:29:08.172Z,4.40
2023-02-03T04:31:35.343Z,4.30
2023-02-03T04:34:02.107Z,4.30
2023-02-03T04:36:28.876Z,4.30
2023-02-03T04:38:55.651Z,4.30
2023-02-03T04:41:22.420Z,4.30
2023-02-03T04:43:49.242Z,4.30
2023-02-03T04:46:16.220Z,4.30
2023-02-03T04:48:42.941Z,4.30
2023-02-03T04:51:09.908Z,4.30
2023-02-03T04:53:37.270Z,4.30
2023-02-03T04:56:04.383Z,4.30
2023-02-03T04:58:31.418Z,4.30
2023-02-03T05:00:58.247Z,4.30
2023-02-03T05:03:26.370Z,4.30
2023-02-03T05:05:56.445Z,4.30
2023-02-03T05:08:23.266Z,4.30
2023-02-03T05:10:50.008Z,4.30
2023-02-03T05:13:16.795Z,4.30
2023-02-03T05:15:43.528Z,4.30
2023-02-03T05:18:10.261Z,4.30
2023-02-03T05:20:36.987Z,4.30
2023-02-03T05:23:03.826Z,4.30
2023-02-03T05:25:31.298Z,4.30
2023-02-03T05:27:58.200Z,4.30
2023-02-03T05:30:25.076Z,4.20
2023-02-03T05:32:51.892Z,4.20
2023-02-03T05:35:18.680Z,4.20
2023-02-03T05:37:46.168Z,4.20
2023-02-03T05:40:32.140Z,4.20
2023-02-03T05:42:59.073Z,4.20
2023-02-03T05:45:26.128Z,4.20
2023-02-03T05:47:52.945Z,4.20
2023-02-03T05:50:19.833Z,4.20
2023-02-03T05:52:46.572Z,4.20
2023-02-03T05:55:13.297Z,4.20
2023-02-03T05:57:40.121Z,4.20
2023-02-03T06:00:07.829Z,4.20
2023-02-03T06:02:34.585Z,4.20
2023-02-03T06:05:01.293Z,4.20
2023-02-03T06:07:28.086Z,4.10
2023-02-03T06:09:54.838Z,4.10
2023-02-03T06:12:22.137Z,4.10
2023-02-03T06:14:48.868Z,4.10
2023-02-03T06:17:15.657Z,4.10
2023-02-03T06:19:42.485Z,4.20
2023-02-03T06:22:09.243Z,4.20
2023-02-03T06:24:35.994Z,4.20
2023-02-03T06:27:02.737Z,4.20
2023-02-03T06:29:29.455Z,4.10
2023-02-03T06:31:56.325Z,4.10
2023-02-03T06:34:23.167Z,4.20
2023-02-03T06:36:52.969Z,4.20
2023-02-03T06:39:20.036Z,4.20
2023-02-03T06:41:46.886Z,4.20
2023-02-03T06:44:13.618Z,4.20
2023-02-03T06:46:40.393Z,4.20
2023-02-03T06:49:07.178Z,4.10
2023-02-03T06:51:34.049Z,4.10
2023-02-03T06:54:01.236Z,4.10
2023-02-03T06:56:27.963Z,4.20
2023-02-03T06:58:54.740Z,4.10
2023-02-03T07:01:21.992Z,4.20
2023-02-03T07:03:48.871Z,4.20
2023-02-03T07:06:15.681Z,4.20
2023-02-03T07:08:42.486Z,4.20
2023-02-03T07:11:09.635Z,4.20
2023-02-03T07:13:36.456Z,4.20
2023-02-03T07:16:03.370Z,4.20
2023-02-03T07:18:46.424Z,4.20
2023-02-03T07:21:16.219Z,4.20
2023-02-03T07:23:43.636Z,4.20
2023-02-03T07:26:11.317Z,4.30
2023-02-03T07:28:38.198Z,4.30
2023-02-03T07:31:05.239Z,4.30
2023-02-03T07:33:32.415Z,4.30
2023-02-03T07:36:00.091Z,4.30
2023-02-03T07:38:28.394Z,4.30
2023-02-03T07:40:55.576Z,4.40
2023-02-03T07:43:22.889Z,4.40
2023-02-03T07:45:49.792Z,4.40
2023-02-03T07:48:16.657Z,4.40
2023-02-03T07:50:43.458Z,4.40
2023-02-03T07:53:10.417Z,4.40
2023-02-03T07:55:40.549Z,4.40
2023-02-03T07:58:07.563Z,4.50
2023-02-03T08:00:34.565Z,4.60
2023-02-03T08:03:01.417Z,4.60
2023-02-03T08:05:28.275Z,4.60
2023-02-03T08:07:55.049Z,4.60
2023-02-03T08:10:22.083Z,4.60
2023-02-03T08:12:48.834Z,4.70
2023-02-03T08:15:15.564Z,4.70
2023-02-03T08:17:42.416Z,4.70
2023-02-03T08:20:12.621Z,4.70
2023-02-03T08:22:39.407Z,4.80
2023-02-03T08:25:07.420Z,4.70
2023-02-03T08:27:34.505Z,4.80
2023-02-03T08:30:01.381Z,4.80
2023-02-03T08:32:28.328Z,4.90
2023-02-03T08:34:55.138Z,4.90
2023-02-03T08:37:24.662Z,4.90
2023-02-03T08:39:52.523Z,5.00
2023-02-03T08:42:19.670Z,5.00
2023-02-03T08:44:46.514Z,5.00
2023-02-03T08:47:13.456Z,5.10
2023-02-03T08:49:40.829Z,5.10
2023-02-03T08:52:12.912Z,5.10
2023-02-03T08:54:40.003Z,5.20
2023-02-03T08:57:06.834Z,5.20
2023-02-03T08:59:36.173Z,5.30
2023-02-03T09:02:05.176Z,5.30
2023-02-03T09:04:33.464Z,5.30
2023-02-03T09:07:02.655Z,5.40
2023-02-03T09:09:29.572Z,5.30
2023-02-03T09:12:02.033Z,5.40
2023-02-03T09:14:30.160Z,5.40
2023-02-03T09:16:57.104Z,5.40
2023-02-03T09:19:23.916Z,5.50
2023-02-03T09:21:50.945Z,5.50
2023-02-03T09:24:18.984Z,5.60
2023-02-03T09:26:45.982Z,5.60
2023-02-03T09:29:12.993Z,5.60
2023-02-03T09:31:39.920Z,5.70
2023-02-03T09:34:10.201Z,5.70
2023-02-03T09:36:37.685Z,5.70
2023-02-03T09:39:04.822Z,5.80
2023-02-03T09:41:42.589Z,5.80
2023-02-03T09:44:18.570Z,5.70
2023-02-03T09:46:51.381Z,5.80
2023-02-03T09:49:38.362Z,5.90
2023-02-03T09:52:27.148Z,5.90
2023-02-03T09:55:05.685Z,5.90
2023-02-03T09:57:40.600Z,5.90
2023-02-03T10:00:30.412Z,5.90
2023-02-03T10:03:21.144Z,5.90
2023-02-03T10:06:21.769Z,5.90
2023-02-03T10:08:48.517Z,5.90
2023-02-03T10:11:30.223Z,5.90
2023-02-03T10:14:05.926Z,6.00
2023-02-03T10:16:56.266Z,6.20
2023-02-03T10:19:28.219Z,6.20
2023-02-03T10:21:58.822Z,6.20
2023-02-03T10:24:45.933Z,6.20
2023-02-03T10:27:18.789Z,6.20
2023-02-03T10:29:51.195Z,6.30
2023-02-03T10:32:17.920Z,6.30
2023-02-03T10:34:47.587Z,6.30
2023-02-03T10:37:17.336Z,6.40
2023-02-03T10:39:49.984Z,6.40
2023-02-03T10:42:17.986Z,6.40
2023-02-03T10:44:47.731Z,6.40
2023-02-03T10:47:22.371Z,6.40
2023-02-03T10:49:56.507Z,6.40
2023-02-03T10:52:32.251Z,6.50
2023-02-03T10:55:01.811Z,6.50
2023-02-03T10:57:29.483Z,6.40
2023-02-03T11:00:07.476Z,6.40
2023-02-03T11:02:34.670Z,6.40
2023-02-03T11:05:30.968Z,6.40
2023-02-03T11:07:57.763Z,6.30
2023-02-03T11:10:53.791Z,6.30
2023-02-03T11:13:25.923Z,6.30
2023-02-03T11:15:53.609Z,6.30
2023-02-03T11:18:44.024Z,6.30
2023-02-03T11:21:15.192Z,6.40
2023-02-03T11:23:49.815Z,6.40
2023-02-03T11:26:21.075Z,6.40
2023-02-03T11:28:54.091Z,6.30
2023-02-03T11:31:27.555Z,6.30
2023-02-03T11:34:10.174Z,6.30
2023-02-03T11:36:37.039Z,6.30
2023-02-03T11:39:20.327Z,6.30
2023-02-03T11:41:48.544Z,6.40
2023-02-03T11:44:31.390Z,6.40
2023-02-03T11:47:04.007Z,6.40
2023-02-03T11:50:14.250Z,6.50
2023-02-03T11:53:26.231Z,6.50
2023-02-03T11:56:04.503Z,6.50
2023-02-03T11:58:49.743Z,6.60
2023-02-03T12:01:44.252Z,6.60
2023-02-03T12:04:37.926Z,6.60
2023-02-03T12:07:28.905Z,6.70
2023-02-03T12:10:24.045Z,6.70
2023-02-03T12:13:21.463Z,6.70
2023-02-03T12:15:56.307Z,6.80
2023-02-03T12:18:38.104Z,6.90
2023-02-03T12:21:23.428Z,6.90
2023-02-03T12:23:59.034Z,6.80
2023-02-03T12:26:39.064Z,6.80
2023-02-03T12:29:25.822Z,6.80
2023-02-03T12:32:14.271Z,6.80
2023-02-03T12:34:52.922Z,6.80
2023-02-03T12:37:32.403Z,6.80
2023-02-03T12:40:04.737Z,6.80
2023-02-03T12:42:38.051Z,6.80
2023-02-03T12:45:29.650Z,6.80
2023-02-03T12:48:06.265Z,6.80
2023-02-03T12:50:40.811Z,6.80
2023-02-03T12:53:12.723Z,6.80
2023-02-03T12:55:44.193Z,6.80
2023-02-03T12:58:21.978Z,6.80
2023-02-03T13:01:14.219Z,6.80
2023-02-03T13:04:06.948Z,6.80
2023-02-03T13:07:13.123Z,6.80
2023-02-03T13:10:01.630Z,6.80
2023-02-03T13:12:45.659Z,6.80
2023-02-03T13:15:26.088Z,6.70
2023-02-03T13:18:34.448Z,6.80
2023-02-03T13:21:01.276Z,6.70
2023-02-03T13:23:28.329Z,6.80
2023-02-03T13:26:01.042Z,6.70
2023-02-03T13:28:53.406Z,6.70
2023-02-03T13:31:30.457Z,6.80
2023-02-03T13:34:11.393Z,6.70
2023-02-03T13:36:54.253Z,6.70
2023-02-03T13:39:26.883Z,6.70
2023-02-03T13:42:16.519Z,6.60
2023-02-03T13:44:46.084Z,6.50
2023-02-03T13:47:19.117Z,6.50
2023-02-03T13:49:53.961Z,6.50
2023-02-03T13:52:33.546Z,6.50
2023-02-03T13:55:01.366Z,6.40
2023-02-03T13:57:38.839Z,6.40
2023-02-03T14:00:28.008Z,6.40
2023-02-03T14:02:56.404Z,6.40
2023-02-03T14:05:45.365Z,6.40
2023-02-03T14:08:38.348Z,6.40
2023-02-03T14:11:35.990Z,6.30
2023-02-03T14:14:08.860Z,6.30
2023-02-03T14:16:38.801Z,6.30
2023-02-03T14:19:13.305Z,6.30
2023-02-03T14:21:42.922Z,6.30
2023-02-03T14:24:11.967Z,6.30
2023-02-03T14:26:45.805Z,6.30
2023-02-03T14:29:30.814Z,6.30
2023-02-03T14:32:09.208Z,6.30
2023-02-03T14:34:38.996Z,6.30
2023-02-03T14:37:32.752Z,6.30
2023-02-03T14:40:18.365Z,6.30
2023-02-03T14:43:12.691Z,6.30
2023-02-03T14:46:00.687Z,6.30
2023-02-03T14:48:58.512Z,6.20
2023-02-03T14:51:37.473Z,6.20
2023-02-03T14:54:19.299Z,6.30
2023-02-03T14:57:16.267Z,6.20
2023-02-03T14:59:59.405Z,6.20
2023-02-03T15:02:31.067Z,6.30
2023-02-03T15:05:34.653Z,6.20
2023-02-03T15:08:03.291Z,6.20
2023-02-03T15:10:44.918Z,6.20
2023-02-03T15:13:24.673Z,6.20
2023-02-03T15:15:54.109Z,6.20
2023-02-03T15:18:37.588Z,6.20
2023-02-03T15:21:05.082Z,6.20
2023-02-03T15:23:43.140Z,6.20
2023-02-03T15:26:15.530Z,6.20
2023-02-03T15:28:43.440Z,6.20
2023-02-03T15:31:32.403Z,6.20
2023-02-03T15:34:03.511Z,6.20
2023-02-03T15:36:39.289Z,6.20
2023-02-03T15:39:26.483Z,6.20
2023-02-03T15:41:57.077Z,6.10
2023-02-03T15:44:35.390Z,6.10
2023-02-03T15:47:05.988Z,6.10
2023-02-03T15:49:40.312Z,6.10
2023-02-03T15:52:22.453Z,6.10
2023-02-03T15:54:56.116Z,6.10
2023-02-03T15:57:27.823Z,6.10
2023-02-03T16:00:17.345Z,6.20
2023-02-03T16:02:46.601Z,6.10
2023-02-03T16:05:34.682Z,6.10
2023-02-03T16:08:42.701Z,6.10
2023-02-03T16:11:38.806Z,6.10
2023-02-03T16:14:12.026Z,6.10
2023-02-03T16:17:04.514Z,6.00
2023-02-03T16:19:34.582Z,6.10
2023-02-03T16:22:01.437Z,6.10
2023-02-03T16:24:43.132Z,6.10
2023-02-03T16:27:28.227Z,6.10
2023-02-03T16:30:40.419Z,6.10
2023-02-03T16:33:28.679Z,6.10
2023-02-03T16:36:15.571Z,6.00
2023-02-03T16:39:05.469Z,6.00
2023-02-03T16:41:51.820Z,6.00
2023-02-03T16:44:37.992Z,6.00
2023-02-03T16:51:03.586Z,6.00
2023-02-03T16:53:32.445Z,6.00
2023-02-03T16:56:04.544Z,6.00
2023-02-03T16:58:31.697Z,6.00
2023-02-03T17:01:01.341Z,6.00
2023-02-03T17:03:29.182Z,5.90
2023-02-03T17:06:00.103Z,5.90
2023-02-03T17:08:27.031Z,5.90
2023-02-03T17:10:53.893Z,5.80
2023-02-03T17:13:22.276Z,5.80
2023-02-03T17:15:54.754Z,5.80
2023-02-03T17:18:22.038Z,5.70
2023-02-03T17:20:49.022Z,5.80
2023-02-03T17:23:16.769Z,5.70
2023-02-03T17:25:49.128Z,5.70
2023-02-03T17:28:16.970Z,5.70
2023-02-03T17:30:44.228Z,5.60
2023-02-03T17:33:12.450Z,5.70
2023-02-03T17:35:44.172Z,5.60
2023-02-03T17:38:12.947Z,5.60
2023-02-03T17:54:29.334Z,5.50
2023-02-03T17:56:56.180Z,5.50
2023-02-03T17:59:23.026Z,5.40
2023-02-03T18:01:50.004Z,5.40
2023-02-03T18:04:16.776Z,5.40
2023-02-03T18:06:46.528Z,5.40
2023-02-03T18:09:16.570Z,5.30
2023-02-03T18:11:46.808Z,5.30
2023-02-03T18:14:14.520Z,5.30
2023-02-03T18:16:41.448Z,5.30
2023-02-03T18:19:11.515Z,5.30
2023-02-03T18:21:39.216Z,5.30
2023-02-03T18:24:06.425Z,5.30
2023-02-03T18:26:37.004Z,5.30
2023-02-03T18:29:05.344Z,5.30
2023-02-03T18:31:32.556Z,5.30
2023-02-03T18:34:03.854Z,5.40
2023-02-03T18:36:32.756Z,5.40
2023-02-03T18:38:59.568Z,5.30
2023-02-03T18:41:27.103Z,5.40
2023-02-03T18:43:54.194Z,5.30
2023-02-03T18:46:27.069Z,5.30
2023-02-03T18:48:56.126Z,5.30
2023-02-03T18:51:29.973Z,5.30
2023-02-03T18:53:58.443Z,5.30
2023-02-03T18:56:28.313Z,5.30
2023-02-03T18:58:55.150Z,5.30
2023-02-03T19:01:29.455Z,5.30
2023-02-03T19:03:58.524Z,5.30
2023-02-03T19:06:30.412Z,5.30
2023-02-03T19:08:58.270Z,5.20
2023-02-03T19:11:25.785Z,5.20
2023-02-03T19:13:52.781Z,5.20
2023-02-03T19:16:19.683Z,5.20
2023-02-03T19:18:46.940Z,5.20
2023-02-03T19:21:14.737Z,5.20
2023-02-03T19:23:42.156Z,5.20
2023-02-03T19:26:10.074Z,5.20
2023-02-03T19:28:37.171Z,5.20
2023-02-03T19:31:15.229Z,5.20
2023-02-03T19:33:42.481Z,5.20
2023-02-03T19:36:09.763Z,5.10
2023-02-03T19:38:37.281Z,5.20
2023-02-03T19:41:04.156Z,5.20
2023-02-03T19:43:31.598Z,5.20
2023-02-03T19:45:58.880Z,5.10
2023-02-03T19:48:25.808Z,5.10
2023-02-03T19:50:52.569Z,5.10
2023-02-03T19:53:19.526Z,5.00
2023-02-03T19:55:47.814Z,5.00
2023-02-03T19:58:14.734Z,5.00
2023-02-03T20:00:42.791Z,5.00
2023-02-03T20:03:10.274Z,5.00
2023-02-03T20:05:37.363Z,4.90
2023-02-03T20:08:05.076Z,4.90
2023-02-03T20:10:32.926Z,4.90
2023-02-03T20:13:00.438Z,4.90
2023-02-03T20:15:27.413Z,4.90
2023-02-03T20:17:54.285Z,4.80
2023-02-03T20:20:21.431Z,4.80
2023-02-03T20:22:48.812Z,4.80
2023-02-03T20:25:16.326Z,4.80
2023-02-03T20:27:43.372Z,4.80
2023-02-03T20:30:11.651Z,4.80
2023-02-03T20:32:38.802Z,4.80
2023-02-03T20:35:06.404Z,4.80
2023-02-03T20:37:33.213Z,4.80
2023-02-03T20:39:59.982Z,4.80
2023-02-03T20:42:26.731Z,4.70
2023-02-03T20:44:53.654Z,4.70
2023-02-03T20:47:22.537Z,4.70
2023-02-03T20:49:49.702Z,4.70
2023-02-03T20:52:19.786Z,4.70
2023-02-03T20:54:46.818Z,4.70
2023-02-03T20:57:16.863Z,4.70
2023-02-03T20:59:47.498Z,4.70
2023-02-03T21:02:23.246Z,4.70
2023-02-03T21:04:59.890Z,4.70
2023-02-03T21:07:30.576Z,4.70
2023-02-03T21:09:59.497Z,4.70
2023-02-03T21:12:28.551Z,4.60
2023-02-03T21:14:55.480Z,4.60
2023-02-03T21:17:27.061Z,4.60
2023-02-03T21:19:55.028Z,4.60
2023-02-03T21:22:27.225Z,4.60
2023-02-03T21:24:57.067Z,4.60
2023-02-03T21:27:29.613Z,4.70
2023-02-03T21:30:02.024Z,4.60
2023-02-03T21:32:38.806Z,4.60
2023-02-03T21:35:37.418Z,4.60
2023-02-03T21:38:28.001Z,4.60
2023-02-03T21:40:54.862Z,4.60
2023-02-03T21:43:24.269Z,4.60
2023-02-03T21:45:51.651Z,4.60
2023-02-03T21:48:39.787Z,4.60
2023-02-03T21:51:17.517Z,4.60
2023-02-03T21:53:51.088Z,4.50
2023-02-03T21:56:23.231Z,4.50
2023-02-03T21:58:50.815Z,4.50
2023-02-03T22:01:19.255Z,4.50
2023-02-03T22:03:51.413Z,4.50
2023-02-03T22:06:41.335Z,4.50
2023-02-03T22:09:12.731Z,4.50
2023-02-03T22:11:39.528Z,4.50
2023-02-03T22:14:06.392Z,4.50
2023-02-03T22:16:33.259Z,4.50
2023-02-03T22:19:00.064Z,4.50
2023-02-03T22:21:27.029Z,4.50
2023-02-03T22:23:54.685Z,4.50
2023-02-03T22:26:22.284Z,4.50
2023-02-03T22:28:49.198Z,4.50
2023-02-03T22:31:16.954Z,4.50
2023-02-03T22:33:44.319Z,4.40
2023-02-03T22:36:11.682Z,4.50
2023-02-03T22:38:39.564Z,4.50
2023-02-03T22:41:07.809Z,4.50
2023-02-03T22:43:35.514Z,4.50
2023-02-03T22:46:04.870Z,4.40
2023-02-03T22:48:31.772Z,4.50
2023-02-03T22:50:58.650Z,4.50
2023-02-03T22:53:26.118Z,4.50
2023-02-03T22:55:52.904Z,4.50
2023-02-03T22:58:19.693Z,4.50
2023-02-03T23:00:46.465Z,4.50
2023-02-03T23:03:13.454Z,4.50
2023-02-03T23:05:40.188Z,4.50
2023-02-03T23:08:07.007Z,4.50
2023-02-03T23:10:34.041Z,4.50
2023-02-03T23:13:01.068Z,4.50
2023-02-03T23:15:28.502Z,4.50
2023-02-03T23:17:55.872Z,4.50
2023-02-03T23:25:32.217Z,4.50
2023-02-03T23:27:59.185Z,4.50
2023-02-03T23:30:25.978Z,4.50
2023-02-03T23:32:53.019Z,4.50
2023-02-03T23:35:38.198Z,4.50
2023-02-03T23:38:05.029Z,4.60
2023-02-03T23:40:32.151Z,4.60
2023-02-03T23:42:59.080Z,4.60
2023-02-03T23:45:25.871Z,4.60
2023-02-03T23:47:52.734Z,4.60
2023-02-03T23:50:20.227Z,4.60
2023-02-03T23:52:48.037Z,4.60
2023-02-03T23:55:17.582Z,4.60
2023-02-03T23:57:45.237Z,4.70
